sensor_id;sensor_type;location;lat;lon;timestamp;temperature;humidity
46890;DHT22;32625;51.080;16.970;2024-03-08T00:00:12;3.40;99.90
46890;DHT22;32625;51.080;16.970;2024-03-08T00:02:42;3.40;99.90
46890;DHT22;32625;51.080;16.970;2024-03-08T00:05:10;3.40;99.90
46890;DHT22;32625;51.080;16.970;2024-03-08T00:07:39;3.30;99.90
46890;DHT22;32625;51.080;16.970;2024-03-08T00:10:07;3.20;99.90
46890;DHT22;32625;51.080;16.970;2024-03-08T00:12:44;3.10;99.90
46890;DHT22;32625;51.080;16.970;2024-03-08T00:15:14;3.10;99.90
46890;DHT22;32625;51.080;16.970;2024-03-08T00:17:44;3.10;99.90
46890;DHT22;32625;51.080;16.970;2024-03-08T00:20:12;3.10;99.90
46890;DHT22;32625;51.080;16.970;2024-03-08T00:22:41;3.10;99.90
46890;DHT22;32625;51.080;16.970;2024-03-08T00:25:09;3.00;99.90
46890;DHT22;32625;51.080;16.970;2024-03-08T00:27:37;2.90;99.90
46890;DHT22;32625;51.080;16.970;2024-03-08T00:30:06;2.90;99.90
46890;DHT22;32625;51.080;16.970;2024-03-08T00:32:34;2.90;99.90
46890;DHT22;32625;51.080;16.970;2024-03-08T00:35:01;2.80;99.90
46890;DHT22;32625;51.080;16.970;2024-03-08T00:37:28;2.90;99.90
46890;DHT22;32625;51.080;16.970;2024-03-08T00:39:56;2.80;99.90
46890;DHT22;32625;51.080;16.970;2024-03-08T00:42:23;2.80;99.90
46890;DHT22;32625;51.080;16.970;2024-03-08T00:44:51;2.70;99.90
46890;DHT22;32625;51.080;16.970;2024-03-08T00:47:19;2.60;99.90
46890;DHT22;32625;51.080;16.970;2024-03-08T00:49:46;2.50;99.90
46890;DHT22;32625;51.080;16.970;2024-03-08T00:52:14;2.50;99.90
46890;DHT22;32625;51.080;16.970;2024-03-08T00:54:41;2.40;99.90
46890;DHT22;32625;51.080;16.970;2024-03-08T00:57:11;2.40;99.90
46890;DHT22;32625;51.080;16.970;2024-03-08T00:59:38;2.30;99.90
46890;DHT22;32625;51.080;16.970;2024-03-08T01:02:06;2.20;99.90
46890;DHT22;32625;51.080;16.970;2024-03-08T01:04:33;2.10;99.90
46890;DHT22;32625;51.080;16.970;2024-03-08T01:07:00;2.10;99.90
46890;DHT22;32625;51.080;16.970;2024-03-08T01:09:28;2.00;99.90
46890;DHT22;32625;51.080;16.970;2024-03-08T01:11:55;1.90;99.90
46890;DHT22;32625;51.080;16.970;2024-03-08T01:14:24;1.90;99.90
46890;DHT22;32625;51.080;16.970;2024-03-08T01:16:52;1.90;99.90
46890;DHT22;32625;51.080;16.970;2024-03-08T01:19:20;1.90;99.90
46890;DHT22;32625;51.080;16.970;2024-03-08T01:21:47;1.90;99.90
46890;DHT22;32625;51.080;16.970;2024-03-08T01:24:14;1.90;99.90
46890;DHT22;32625;51.080;16.970;2024-03-08T01:26:41;1.80;99.90
46890;DHT22;32625;51.080;16.970;2024-03-08T01:29:08;1.70;99.90
46890;DHT22;32625;51.080;16.970;2024-03-08T01:31:36;1.70;99.90
46890;DHT22;32625;51.080;16.970;2024-03-08T01:34:06;1.70;99.90
46890;DHT22;32625;51.080;16.970;2024-03-08T01:36:33;1.70;99.90
46890;DHT22;32625;51.080;16.970;2024-03-08T01:39:01;1.60;99.90
46890;DHT22;32625;51.080;16.970;2024-03-08T01:41:28;1.60;99.90
46890;DHT22;32625;51.080;16.970;2024-03-08T01:43:57;1.60;99.90
46890;DHT22;32625;51.080;16.970;2024-03-08T01:46:24;1.70;99.90
46890;DHT22;32625;51.080;16.970;2024-03-08T01:48:51;1.60;99.90
46890;DHT22;32625;51.080;16.970;2024-03-08T01:51:20;1.60;99.90
46890;DHT22;32625;51.080;16.970;2024-03-08T01:53:48;1.60;99.90
46890;DHT22;32625;51.080;16.970;2024-03-08T01:56:16;1.70;99.90
46890;DHT22;32625;51.080;16.970;2024-03-08T01:58:45;1.70;99.90
46890;DHT22;32625;51.080;16.970;2024-03-08T02:01:15;1.70;99.90
46890;DHT22;32625;51.080;16.970;2024-03-08T02:03:44;1.60;99.90
46890;DHT22;32625;51.080;16.970;2024-03-08T02:06:12;1.60;99.90
46890;DHT22;32625;51.080;16.970;2024-03-08T02:08:45;1.60;99.90
46890;DHT22;32625;51.080;16.970;2024-03-08T02:11:14;1.50;99.90
46890;DHT22;32625;51.080;16.970;2024-03-08T02:13:43;1.40;99.90
46890;DHT22;32625;51.080;16.970;2024-03-08T02:16:10;1.40;99.90
46890;DHT22;32625;51.080;16.970;2024-03-08T02:18:37;1.40;99.90
46890;DHT22;32625;51.080;16.970;2024-03-08T02:21:07;1.40;99.90
46890;DHT22;32625;51.080;16.970;2024-03-08T02:23:36;1.40;99.90
46890;DHT22;32625;51.080;16.970;2024-03-08T02:26:04;1.30;99.90
46890;DHT22;32625;51.080;16.970;2024-03-08T02:28:32;1.30;99.90
46890;DHT22;32625;51.080;16.970;2024-03-08T02:30:59;1.30;99.90
46890;DHT22;32625;51.080;16.970;2024-03-08T02:33:27;1.30;99.90
46890;DHT22;32625;51.080;16.970;2024-03-08T02:35:55;1.30;99.90
46890;DHT22;32625;51.080;16.970;2024-03-08T02:38:23;1.40;99.90
46890;DHT22;32625;51.080;16.970;2024-03-08T02:40:53;1.40;99.90
46890;DHT22;32625;51.080;16.970;2024-03-08T02:43:21;1.40;99.90
46890;DHT22;32625;51.080;16.970;2024-03-08T02:45:50;1.40;99.90
46890;DHT22;32625;51.080;16.970;2024-03-08T02:48:19;1.40;99.90
46890;DHT22;32625;51.080;16.970;2024-03-08T02:50:49;1.40;99.90
46890;DHT22;32625;51.080;16.970;2024-03-08T02:53:18;1.50;99.90
46890;DHT22;32625;51.080;16.970;2024-03-08T02:55:46;1.50;99.90
46890;DHT22;32625;51.080;16.970;2024-03-08T02:58:13;1.50;99.90
46890;DHT22;32625;51.080;16.970;2024-03-08T03:00:42;1.50;99.90
46890;DHT22;32625;51.080;16.970;2024-03-08T03:03:11;1.40;99.90
46890;DHT22;32625;51.080;16.970;2024-03-08T03:05:39;1.40;99.90
46890;DHT22;32625;51.080;16.970;2024-03-08T03:08:14;1.40;99.90
46890;DHT22;32625;51.080;16.970;2024-03-08T03:10:44;1.30;99.90
46890;DHT22;32625;51.080;16.970;2024-03-08T03:13:11;1.30;99.90
46890;DHT22;32625;51.080;16.970;2024-03-08T03:15:39;1.30;99.90
46890;DHT22;32625;51.080;16.970;2024-03-08T03:18:09;1.30;99.90
46890;DHT22;32625;51.080;16.970;2024-03-08T03:20:36;1.20;99.90
46890;DHT22;32625;51.080;16.970;2024-03-08T03:23:12;1.20;99.90
46890;DHT22;32625;51.080;16.970;2024-03-08T03:25:42;1.20;99.90
46890;DHT22;32625;51.080;16.970;2024-03-08T03:28:10;1.20;99.90
46890;DHT22;32625;51.080;16.970;2024-03-08T03:30:42;1.20;99.90
46890;DHT22;32625;51.080;16.970;2024-03-08T03:33:09;1.20;99.90
46890;DHT22;32625;51.080;16.970;2024-03-08T03:35:37;1.20;99.90
46890;DHT22;32625;51.080;16.970;2024-03-08T03:38:05;1.20;99.90
46890;DHT22;32625;51.080;16.970;2024-03-08T03:40:38;1.20;99.90
46890;DHT22;32625;51.080;16.970;2024-03-08T03:43:06;1.30;99.90
46890;DHT22;32625;51.080;16.970;2024-03-08T03:45:34;1.30;99.90
46890;DHT22;32625;51.080;16.970;2024-03-08T03:48:05;1.20;99.90
46890;DHT22;32625;51.080;16.970;2024-03-08T03:50:41;1.30;99.90
46890;DHT22;32625;51.080;16.970;2024-03-08T03:53:08;1.20;99.90
46890;DHT22;32625;51.080;16.970;2024-03-08T03:55:37;1.20;99.90
46890;DHT22;32625;51.080;16.970;2024-03-08T03:58:08;1.20;99.90
46890;DHT22;32625;51.080;16.970;2024-03-08T04:00:37;1.20;99.90
46890;DHT22;32625;51.080;16.970;2024-03-08T04:03:05;1.20;99.90
46890;DHT22;32625;51.080;16.970;2024-03-08T04:05:33;1.20;99.90
46890;DHT22;32625;51.080;16.970;2024-03-08T04:08:00;1.00;99.90
46890;DHT22;32625;51.080;16.970;2024-03-08T04:10:28;1.00;99.90
46890;DHT22;32625;51.080;16.970;2024-03-08T04:12:55;1.00;99.90
46890;DHT22;32625;51.080;16.970;2024-03-08T04:15:23;1.00;99.90
46890;DHT22;32625;51.080;16.970;2024-03-08T04:17:50;0.90;99.90
46890;DHT22;32625;51.080;16.970;2024-03-08T04:20:18;0.90;99.90
46890;DHT22;32625;51.080;16.970;2024-03-08T04:22:45;0.80;99.90
46890;DHT22;32625;51.080;16.970;2024-03-08T04:25:15;0.80;99.90
46890;DHT22;32625;51.080;16.970;2024-03-08T04:27:42;0.80;99.90
46890;DHT22;32625;51.080;16.970;2024-03-08T04:30:11;0.80;99.90
46890;DHT22;32625;51.080;16.970;2024-03-08T04:32:39;0.90;99.90
46890;DHT22;32625;51.080;16.970;2024-03-08T04:35:06;0.80;99.90
46890;DHT22;32625;51.080;16.970;2024-03-08T04:37:33;0.80;99.90
46890;DHT22;32625;51.080;16.970;2024-03-08T04:40:01;0.70;99.90
46890;DHT22;32625;51.080;16.970;2024-03-08T04:42:28;0.80;99.90
46890;DHT22;32625;51.080;16.970;2024-03-08T04:44:57;0.80;99.90
46890;DHT22;32625;51.080;16.970;2024-03-08T04:47:25;0.80;99.90
46890;DHT22;32625;51.080;16.970;2024-03-08T04:49:52;0.80;99.90
46890;DHT22;32625;51.080;16.970;2024-03-08T04:52:20;0.80;99.90
46890;DHT22;32625;51.080;16.970;2024-03-08T04:54:49;0.70;99.90
46890;DHT22;32625;51.080;16.970;2024-03-08T04:57:16;0.70;99.90
46890;DHT22;32625;51.080;16.970;2024-03-08T04:59:46;0.60;99.90
46890;DHT22;32625;51.080;16.970;2024-03-08T05:02:13;0.70;99.90
46890;DHT22;32625;51.080;16.970;2024-03-08T05:04:40;0.70;99.90
46890;DHT22;32625;51.080;16.970;2024-03-08T05:07:09;0.60;99.90
46890;DHT22;32625;51.080;16.970;2024-03-08T05:09:37;0.60;99.90
46890;DHT22;32625;51.080;16.970;2024-03-08T05:12:05;0.70;99.90
46890;DHT22;32625;51.080;16.970;2024-03-08T05:14:32;0.60;99.90
46890;DHT22;32625;51.080;16.970;2024-03-08T05:17:01;0.60;99.90
46890;DHT22;32625;51.080;16.970;2024-03-08T05:19:28;0.70;99.90
46890;DHT22;32625;51.080;16.970;2024-03-08T05:22:01;0.70;99.90
46890;DHT22;32625;51.080;16.970;2024-03-08T05:24:28;0.70;99.90
46890;DHT22;32625;51.080;16.970;2024-03-08T05:26:57;0.50;99.90
46890;DHT22;32625;51.080;16.970;2024-03-08T05:29:24;0.50;99.90
46890;DHT22;32625;51.080;16.970;2024-03-08T05:31:52;0.50;99.90
46890;DHT22;32625;51.080;16.970;2024-03-08T05:34:22;0.40;99.90
46890;DHT22;32625;51.080;16.970;2024-03-08T05:36:49;0.40;99.90
46890;DHT22;32625;51.080;16.970;2024-03-08T05:39:18;0.40;99.90
46890;DHT22;32625;51.080;16.970;2024-03-08T05:41:47;0.40;99.90
46890;DHT22;32625;51.080;16.970;2024-03-08T05:44:15;0.40;99.90
46890;DHT22;32625;51.080;16.970;2024-03-08T05:46:44;0.30;99.90
46890;DHT22;32625;51.080;16.970;2024-03-08T05:49:15;0.30;99.90
46890;DHT22;32625;51.080;16.970;2024-03-08T05:51:42;0.30;99.90
46890;DHT22;32625;51.080;16.970;2024-03-08T05:54:11;0.30;99.90
46890;DHT22;32625;51.080;16.970;2024-03-08T05:56:43;0.40;99.90
46890;DHT22;32625;51.080;16.970;2024-03-08T05:59:12;0.40;99.90
46890;DHT22;32625;51.080;16.970;2024-03-08T06:01:40;0.40;99.90
46890;DHT22;32625;51.080;16.970;2024-03-08T06:04:09;0.40;99.90
46890;DHT22;32625;51.080;16.970;2024-03-08T06:06:39;0.50;99.90
46890;DHT22;32625;51.080;16.970;2024-03-08T06:09:07;0.50;99.90
46890;DHT22;32625;51.080;16.970;2024-03-08T06:11:39;0.50;99.90
46890;DHT22;32625;51.080;16.970;2024-03-08T06:14:07;0.60;99.90
46890;DHT22;32625;51.080;16.970;2024-03-08T06:16:34;0.60;99.90
46890;DHT22;32625;51.080;16.970;2024-03-08T06:19:03;0.60;99.90
46890;DHT22;32625;51.080;16.970;2024-03-08T06:21:30;0.60;99.90
46890;DHT22;32625;51.080;16.970;2024-03-08T06:23:58;0.50;99.90
46890;DHT22;32625;51.080;16.970;2024-03-08T06:26:25;0.60;99.90
46890;DHT22;32625;51.080;16.970;2024-03-08T06:28:57;0.60;99.90
46890;DHT22;32625;51.080;16.970;2024-03-08T06:31:24;0.70;99.90
46890;DHT22;32625;51.080;16.970;2024-03-08T06:33:52;0.80;99.90
46890;DHT22;32625;51.080;16.970;2024-03-08T06:36:23;0.80;99.90
46890;DHT22;32625;51.080;16.970;2024-03-08T06:38:51;0.80;99.90
46890;DHT22;32625;51.080;16.970;2024-03-08T06:41:18;0.90;99.90
46890;DHT22;32625;51.080;16.970;2024-03-08T06:43:46;0.90;99.90
46890;DHT22;32625;51.080;16.970;2024-03-08T06:46:15;0.90;99.90
46890;DHT22;32625;51.080;16.970;2024-03-08T06:48:42;0.90;99.90
46890;DHT22;32625;51.080;16.970;2024-03-08T06:51:10;1.00;99.90
46890;DHT22;32625;51.080;16.970;2024-03-08T06:53:38;1.10;99.90
46890;DHT22;32625;51.080;16.970;2024-03-08T06:56:06;1.10;99.90
46890;DHT22;32625;51.080;16.970;2024-03-08T06:58:35;1.20;99.90
46890;DHT22;32625;51.080;16.970;2024-03-08T07:01:02;1.10;99.90
46890;DHT22;32625;51.080;16.970;2024-03-08T07:03:35;1.20;99.90
46890;DHT22;32625;51.080;16.970;2024-03-08T07:06:02;1.20;99.90
46890;DHT22;32625;51.080;16.970;2024-03-08T07:08:30;1.20;99.90
46890;DHT22;32625;51.080;16.970;2024-03-08T07:10:58;1.30;99.90
46890;DHT22;32625;51.080;16.970;2024-03-08T07:13:26;1.30;99.90
46890;DHT22;32625;51.080;16.970;2024-03-08T07:15:56;1.30;99.90
46890;DHT22;32625;51.080;16.970;2024-03-08T07:18:23;1.30;99.90
46890;DHT22;32625;51.080;16.970;2024-03-08T07:20:51;1.40;99.90
46890;DHT22;32625;51.080;16.970;2024-03-08T07:23:18;1.40;99.90
46890;DHT22;32625;51.080;16.970;2024-03-08T07:26:05;1.40;99.90
46890;DHT22;32625;51.080;16.970;2024-03-08T07:28:32;1.50;99.90
46890;DHT22;32625;51.080;16.970;2024-03-08T07:31:00;1.50;99.90
46890;DHT22;32625;51.080;16.970;2024-03-08T07:33:47;1.60;99.90
46890;DHT22;32625;51.080;16.970;2024-03-08T07:36:17;1.60;99.90
46890;DHT22;32625;51.080;16.970;2024-03-08T07:38:44;1.70;99.90
46890;DHT22;32625;51.080;16.970;2024-03-08T07:41:15;1.70;99.90
46890;DHT22;32625;51.080;16.970;2024-03-08T07:43:43;1.70;99.90
46890;DHT22;32625;51.080;16.970;2024-03-08T07:46:10;1.80;99.90
46890;DHT22;32625;51.080;16.970;2024-03-08T07:48:37;1.80;99.90
46890;DHT22;32625;51.080;16.970;2024-03-08T07:51:06;1.90;99.90
46890;DHT22;32625;51.080;16.970;2024-03-08T07:53:36;2.00;99.90
46890;DHT22;32625;51.080;16.970;2024-03-08T07:56:05;2.10;99.90
46890;DHT22;32625;51.080;16.970;2024-03-08T07:58:32;2.10;99.90
46890;DHT22;32625;51.080;16.970;2024-03-08T08:01:01;2.10;99.90
46890;DHT22;32625;51.080;16.970;2024-03-08T08:03:29;2.20;99.90
46890;DHT22;32625;51.080;16.970;2024-03-08T08:05:56;2.20;99.90
46890;DHT22;32625;51.080;16.970;2024-03-08T08:08:23;2.20;99.90
46890;DHT22;32625;51.080;16.970;2024-03-08T08:10:53;2.30;99.90
46890;DHT22;32625;51.080;16.970;2024-03-08T08:13:20;2.40;99.90
46890;DHT22;32625;51.080;16.970;2024-03-08T08:15:47;2.40;99.90
46890;DHT22;32625;51.080;16.970;2024-03-08T08:18:14;2.50;99.90
46890;DHT22;32625;51.080;16.970;2024-03-08T08:20:41;2.60;99.90
46890;DHT22;32625;51.080;16.970;2024-03-08T08:23:08;2.70;99.90
46890;DHT22;32625;51.080;16.970;2024-03-08T08:25:36;2.70;99.90
46890;DHT22;32625;51.080;16.970;2024-03-08T08:28:05;2.70;99.90
46890;DHT22;32625;51.080;16.970;2024-03-08T08:30:32;2.80;99.90
46890;DHT22;32625;51.080;16.970;2024-03-08T08:33:00;2.80;99.90
46890;DHT22;32625;51.080;16.970;2024-03-08T08:35:27;2.90;99.90
46890;DHT22;32625;51.080;16.970;2024-03-08T08:37:56;2.90;99.90
46890;DHT22;32625;51.080;16.970;2024-03-08T08:40:25;3.00;99.90
46890;DHT22;32625;51.080;16.970;2024-03-08T08:42:55;3.10;99.90
46890;DHT22;32625;51.080;16.970;2024-03-08T08:45:24;3.10;99.90
46890;DHT22;32625;51.080;16.970;2024-03-08T08:47:53;3.20;99.90
46890;DHT22;32625;51.080;16.970;2024-03-08T08:50:22;3.30;99.90
46890;DHT22;32625;51.080;16.970;2024-03-08T08:52:54;3.30;99.90
46890;DHT22;32625;51.080;16.970;2024-03-08T08:55:21;3.40;99.90
46890;DHT22;32625;51.080;16.970;2024-03-08T08:57:53;3.40;99.90
46890;DHT22;32625;51.080;16.970;2024-03-08T09:00:20;3.50;99.90
46890;DHT22;32625;51.080;16.970;2024-03-08T09:02:48;3.60;99.90
46890;DHT22;32625;51.080;16.970;2024-03-08T09:05:15;3.60;99.90
46890;DHT22;32625;51.080;16.970;2024-03-08T09:07:44;3.70;99.90
46890;DHT22;32625;51.080;16.970;2024-03-08T09:10:12;3.70;99.90
46890;DHT22;32625;51.080;16.970;2024-03-08T09:12:42;3.90;99.90
46890;DHT22;32625;51.080;16.970;2024-03-08T09:15:09;3.90;99.90
46890;DHT22;32625;51.080;16.970;2024-03-08T09:17:39;4.00;99.90
46890;DHT22;32625;51.080;16.970;2024-03-08T09:20:08;4.00;99.90
46890;DHT22;32625;51.080;16.970;2024-03-08T09:22:45;4.10;99.90
46890;DHT22;32625;51.080;16.970;2024-03-08T09:25:13;4.10;99.90
46890;DHT22;32625;51.080;16.970;2024-03-08T09:27:41;4.20;99.90
46890;DHT22;32625;51.080;16.970;2024-03-08T09:30:08;4.20;99.90
46890;DHT22;32625;51.080;16.970;2024-03-08T09:32:36;4.30;99.90
46890;DHT22;32625;51.080;16.970;2024-03-08T09:35:04;4.30;99.90
46890;DHT22;32625;51.080;16.970;2024-03-08T09:37:35;4.40;99.90
46890;DHT22;32625;51.080;16.970;2024-03-08T09:40:03;4.50;99.90
46890;DHT22;32625;51.080;16.970;2024-03-08T09:42:37;4.50;99.90
46890;DHT22;32625;51.080;16.970;2024-03-08T09:45:09;4.60;99.90
46890;DHT22;32625;51.080;16.970;2024-03-08T09:47:40;4.60;99.90
46890;DHT22;32625;51.080;16.970;2024-03-08T09:50:08;4.70;99.90
46890;DHT22;32625;51.080;16.970;2024-03-08T09:52:49;4.70;99.90
46890;DHT22;32625;51.080;16.970;2024-03-08T09:55:17;4.70;99.90
46890;DHT22;32625;51.080;16.970;2024-03-08T09:57:51;4.80;99.90
46890;DHT22;32625;51.080;16.970;2024-03-08T10:00:38;4.90;99.90
46890;DHT22;32625;51.080;16.970;2024-03-08T10:03:05;5.00;99.90
46890;DHT22;32625;51.080;16.970;2024-03-08T10:05:33;5.00;99.90
46890;DHT22;32625;51.080;16.970;2024-03-08T10:08:00;5.00;99.90
46890;DHT22;32625;51.080;16.970;2024-03-08T10:10:27;5.10;99.90
46890;DHT22;32625;51.080;16.970;2024-03-08T10:12:55;5.10;99.90
46890;DHT22;32625;51.080;16.970;2024-03-08T10:15:23;5.20;99.30
46890;DHT22;32625;51.080;16.970;2024-03-08T10:17:51;5.10;98.80
46890;DHT22;32625;51.080;16.970;2024-03-08T10:20:20;5.10;98.60
46890;DHT22;32625;51.080;16.970;2024-03-08T10:22:47;5.10;99.00
46890;DHT22;32625;51.080;16.970;2024-03-08T10:25:33;5.20;98.80
46890;DHT22;32625;51.080;16.970;2024-03-08T10:28:03;5.30;97.40
46890;DHT22;32625;51.080;16.970;2024-03-08T10:30:31;5.30;97.50
46890;DHT22;32625;51.080;16.970;2024-03-08T10:32:59;5.40;97.10
46890;DHT22;32625;51.080;16.970;2024-03-08T10:35:27;5.40;95.10
46890;DHT22;32625;51.080;16.970;2024-03-08T10:37:56;5.40;95.70
46890;DHT22;32625;51.080;16.970;2024-03-08T10:40:28;5.50;95.80
46890;DHT22;32625;51.080;16.970;2024-03-08T10:42:56;5.50;95.80
46890;DHT22;32625;51.080;16.970;2024-03-08T10:45:36;5.60;95.10
46890;DHT22;32625;51.080;16.970;2024-03-08T10:50:44;5.60;93.70
46890;DHT22;32625;51.080;16.970;2024-03-08T10:53:20;5.60;93.40
46890;DHT22;32625;51.080;16.970;2024-03-08T10:55:51;5.60;93.10
46890;DHT22;32625;51.080;16.970;2024-03-08T10:58:22;5.60;94.30
46890;DHT22;32625;51.080;16.970;2024-03-08T11:00:54;5.70;94.70
46890;DHT22;32625;51.080;16.970;2024-03-08T11:06:17;5.70;92.40
46890;DHT22;32625;51.080;16.970;2024-03-08T11:08:46;5.80;92.70
46890;DHT22;32625;51.080;16.970;2024-03-08T11:11:33;5.80;92.20
46890;DHT22;32625;51.080;16.970;2024-03-08T11:14:04;5.80;92.40
46890;DHT22;32625;51.080;16.970;2024-03-08T11:21:37;5.90;91.40
46890;DHT22;32625;51.080;16.970;2024-03-08T11:24:12;5.90;91.80
46890;DHT22;32625;51.080;16.970;2024-03-08T11:26:45;5.90;90.60
46890;DHT22;32625;51.080;16.970;2024-03-08T11:29:43;6.00;90.60
46890;DHT22;32625;51.080;16.970;2024-03-08T11:32:17;5.90;90.20
46890;DHT22;32625;51.080;16.970;2024-03-08T11:34:50;5.90;91.50
46890;DHT22;32625;51.080;16.970;2024-03-08T11:37:19;6.00;92.40
46890;DHT22;32625;51.080;16.970;2024-03-08T11:39:49;6.00;91.20
46890;DHT22;32625;51.080;16.970;2024-03-08T11:42:18;6.20;91.30
46890;DHT22;32625;51.080;16.970;2024-03-08T11:44:50;6.10;89.50
46890;DHT22;32625;51.080;16.970;2024-03-08T11:47:18;6.10;90.20
46890;DHT22;32625;51.080;16.970;2024-03-08T11:49:45;6.20;90.80
46890;DHT22;32625;51.080;16.970;2024-03-08T11:52:16;6.20;89.80
46890;DHT22;32625;51.080;16.970;2024-03-08T11:54:51;6.30;87.40
46890;DHT22;32625;51.080;16.970;2024-03-08T11:57:24;6.30;87.20
46890;DHT22;32625;51.080;16.970;2024-03-08T11:59:55;6.40;88.00
46890;DHT22;32625;51.080;16.970;2024-03-08T12:02:34;6.40;87.30
46890;DHT22;32625;51.080;16.970;2024-03-08T12:05:10;6.50;87.20
46890;DHT22;32625;51.080;16.970;2024-03-08T12:07:37;6.50;88.10
46890;DHT22;32625;51.080;16.970;2024-03-08T12:10:20;6.60;85.30
46890;DHT22;32625;51.080;16.970;2024-03-08T12:12:49;6.60;84.20
46890;DHT22;32625;51.080;16.970;2024-03-08T12:15:19;6.70;82.30
46890;DHT22;32625;51.080;16.970;2024-03-08T12:17:49;6.70;82.30
46890;DHT22;32625;51.080;16.970;2024-03-08T12:22:45;6.70;81.40
46890;DHT22;32625;51.080;16.970;2024-03-08T12:25:12;6.70;80.30
46890;DHT22;32625;51.080;16.970;2024-03-08T12:27:40;6.70;81.20
46890;DHT22;32625;51.080;16.970;2024-03-08T12:30:22;6.70;80.90
46890;DHT22;32625;51.080;16.970;2024-03-08T12:32:59;6.70;80.40
46890;DHT22;32625;51.080;16.970;2024-03-08T12:35:30;6.80;80.40
46890;DHT22;32625;51.080;16.970;2024-03-08T12:37:59;6.80;80.30
46890;DHT22;32625;51.080;16.970;2024-03-08T12:40:28;6.80;79.90
46890;DHT22;32625;51.080;16.970;2024-03-08T12:42:56;6.90;80.70
46890;DHT22;32625;51.080;16.970;2024-03-08T12:45:24;6.90;81.70
46890;DHT22;32625;51.080;16.970;2024-03-08T12:47:52;6.90;80.30
46890;DHT22;32625;51.080;16.970;2024-03-08T12:50:23;6.90;79.30
46890;DHT22;32625;51.080;16.970;2024-03-08T12:52:53;7.00;81.00
46890;DHT22;32625;51.080;16.970;2024-03-08T12:55:21;7.00;81.60
46890;DHT22;32625;51.080;16.970;2024-03-08T12:57:48;7.00;81.70
46890;DHT22;32625;51.080;16.970;2024-03-08T13:00:16;7.00;80.70
46890;DHT22;32625;51.080;16.970;2024-03-08T13:02:46;7.10;79.30
46890;DHT22;32625;51.080;16.970;2024-03-08T13:05:14;7.10;80.40
46890;DHT22;32625;51.080;16.970;2024-03-08T13:07:41;7.00;80.90
46890;DHT22;32625;51.080;16.970;2024-03-08T13:10:14;7.00;80.90
46890;DHT22;32625;51.080;16.970;2024-03-08T13:12:42;7.10;80.30
46890;DHT22;32625;51.080;16.970;2024-03-08T13:15:10;7.10;79.50
46890;DHT22;32625;51.080;16.970;2024-03-08T13:17:48;7.10;79.30
46890;DHT22;32625;51.080;16.970;2024-03-08T13:20:16;7.10;80.90
46890;DHT22;32625;51.080;16.970;2024-03-08T13:22:57;7.10;79.90
46890;DHT22;32625;51.080;16.970;2024-03-08T13:25:26;7.20;78.60
46890;DHT22;32625;51.080;16.970;2024-03-08T13:27:53;7.20;79.00
46890;DHT22;32625;51.080;16.970;2024-03-08T13:30:23;7.20;79.50
46890;DHT22;32625;51.080;16.970;2024-03-08T13:32:53;7.20;80.00
46890;DHT22;32625;51.080;16.970;2024-03-08T13:35:21;7.20;80.30
46890;DHT22;32625;51.080;16.970;2024-03-08T13:37:53;7.10;81.70
46890;DHT22;32625;51.080;16.970;2024-03-08T13:40:20;7.20;81.20
46890;DHT22;32625;51.080;16.970;2024-03-08T13:42:48;7.20;80.90
46890;DHT22;32625;51.080;16.970;2024-03-08T13:45:16;7.20;80.50
46890;DHT22;32625;51.080;16.970;2024-03-08T13:47:50;7.20;81.10
46890;DHT22;32625;51.080;16.970;2024-03-08T13:50:21;7.30;80.80
46890;DHT22;32625;51.080;16.970;2024-03-08T13:52:50;7.30;78.70
46890;DHT22;32625;51.080;16.970;2024-03-08T13:55:23;7.30;79.80
46890;DHT22;32625;51.080;16.970;2024-03-08T13:57:54;7.30;80.30
46890;DHT22;32625;51.080;16.970;2024-03-08T14:00:24;7.30;81.80
46890;DHT22;32625;51.080;16.970;2024-03-08T14:02:55;7.40;79.30
46890;DHT22;32625;51.080;16.970;2024-03-08T14:05:22;7.40;80.60
46890;DHT22;32625;51.080;16.970;2024-03-08T14:07:49;7.40;81.00
46890;DHT22;32625;51.080;16.970;2024-03-08T14:10:17;7.40;81.20
46890;DHT22;32625;51.080;16.970;2024-03-08T14:12:49;7.40;80.50
46890;DHT22;32625;51.080;16.970;2024-03-08T14:15:17;7.40;81.50
46890;DHT22;32625;51.080;16.970;2024-03-08T14:17:45;7.40;81.90
46890;DHT22;32625;51.080;16.970;2024-03-08T14:20:19;7.50;80.90
46890;DHT22;32625;51.080;16.970;2024-03-08T14:22:46;7.40;80.00
46890;DHT22;32625;51.080;16.970;2024-03-08T14:25:13;7.50;80.40
46890;DHT22;32625;51.080;16.970;2024-03-08T14:27:45;7.40;80.70
46890;DHT22;32625;51.080;16.970;2024-03-08T14:30:13;7.40;81.60
46890;DHT22;32625;51.080;16.970;2024-03-08T14:32:44;7.40;83.10
46890;DHT22;32625;51.080;16.970;2024-03-08T14:35:14;7.40;82.70
46890;DHT22;32625;51.080;16.970;2024-03-08T14:37:41;7.30;83.40
46890;DHT22;32625;51.080;16.970;2024-03-08T14:40:10;7.40;82.00
46890;DHT22;32625;51.080;16.970;2024-03-08T14:42:37;7.40;80.90
46890;DHT22;32625;51.080;16.970;2024-03-08T14:45:09;7.40;81.60
46890;DHT22;32625;51.080;16.970;2024-03-08T14:47:36;7.40;78.90
46890;DHT22;32625;51.080;16.970;2024-03-08T14:50:05;7.40;79.40
46890;DHT22;32625;51.080;16.970;2024-03-08T14:52:35;7.40;83.30
46890;DHT22;32625;51.080;16.970;2024-03-08T14:55:03;7.30;82.30
46890;DHT22;32625;51.080;16.970;2024-03-08T14:57:33;7.30;83.00
46890;DHT22;32625;51.080;16.970;2024-03-08T15:00:00;7.30;83.00
46890;DHT22;32625;51.080;16.970;2024-03-08T15:02:33;7.30;85.50
46890;DHT22;32625;51.080;16.970;2024-03-08T15:05:04;7.20;87.10
46890;DHT22;32625;51.080;16.970;2024-03-08T15:07:35;7.20;85.10
46890;DHT22;32625;51.080;16.970;2024-03-08T15:10:03;7.20;85.40
46890;DHT22;32625;51.080;16.970;2024-03-08T15:12:38;7.30;84.30
46890;DHT22;32625;51.080;16.970;2024-03-08T15:15:08;7.20;83.70
46890;DHT22;32625;51.080;16.970;2024-03-08T15:17:36;7.20;85.00
46890;DHT22;32625;51.080;16.970;2024-03-08T15:20:07;7.20;86.60
46890;DHT22;32625;51.080;16.970;2024-03-08T15:22:46;7.20;84.20
46890;DHT22;32625;51.080;16.970;2024-03-08T15:25:14;7.20;84.90
46890;DHT22;32625;51.080;16.970;2024-03-08T15:27:47;7.20;87.20
46890;DHT22;32625;51.080;16.970;2024-03-08T15:30:15;7.10;90.60
46890;DHT22;32625;51.080;16.970;2024-03-08T15:32:46;7.00;90.50
46890;DHT22;32625;51.080;16.970;2024-03-08T15:35:14;7.00;89.20
46890;DHT22;32625;51.080;16.970;2024-03-08T15:37:43;7.00;89.80
46890;DHT22;32625;51.080;16.970;2024-03-08T15:40:12;7.00;90.50
46890;DHT22;32625;51.080;16.970;2024-03-08T15:42:58;6.90;89.70
46890;DHT22;32625;51.080;16.970;2024-03-08T15:45:26;6.90;90.10
46890;DHT22;32625;51.080;16.970;2024-03-08T15:47:56;6.90;90.40
46890;DHT22;32625;51.080;16.970;2024-03-08T15:50:24;6.90;87.90
46890;DHT22;32625;51.080;16.970;2024-03-08T15:52:51;6.80;89.00
46890;DHT22;32625;51.080;16.970;2024-03-08T15:55:21;6.80;88.30